Dakar, Sénégal

21:42 GMT le 22 octobre 2014 (GMT +0000)
Ngor Almadies | Change Station
CLOSE
Current Station
Stations météorologiques personnelles
Location: Dakar, DAKAR
Altitude: 46 ft
Stations météo à proximité

Alt. 46 ft 14.74 °N, 17.51 °W | Updated 9 seconds ago

Scattered Clouds
Nuages épars
82.0 ° F
Paraît 91 ° F
N
2.0
Vent Variable Vent de NO
Gusts 4.0 mph

Aujourd'hui
Haut(e) -- | Bas -- ° F
--% Risque de précip.
Hier
Haut(e) -- | Bas -- ° F
Precip. -- pouce
7:02 AM 6:45 PM
Lune descendante, 1% visible
Pression 29.92 pouce
Visibilité 6.2 Miles terrestres
Nuages Nuages épars 800 ft
indice de chaleur 91 ° F
Point de rosée 79 ° F
Humidité 90%
Précipitations 0.00 pouce
Profondeur de la couche neigeuse Non disponible.
UV 0 sur 12
Pollen Non disponible.
Qualité de l'air Non disponible.
Flu Activity Non disponible.
METAR GOOY 222130Z 27005KT 240V300 9999 SCT008 28/26 Q1013 NOSIG

More Conditions Fewer Conditions

Pression 29.92 pouce
Visibilité 6.2 Miles terrestres
Nuages Nuages épars 800 ft
indice de chaleur 91 ° F
Point de rosée 79 ° F
Humidité 90%
Précipitations 0.00 pouce
Profondeur de la couche neigeuse Non disponible.
UV 0 sur 12
Pollen Non disponible.
Qualité de l'air Non disponible.
Flu Activity Non disponible.
METAR GOOY 222130Z 27005KT 240V300 9999 SCT008 28/26 Q1013 NOSIG

More Conditions Fewer Conditions

10-Day Weather Forecast

Almanac

Astronomie

Oct. 22, 2014 Lever Coucher
Temps réel 07:02 GMT 18:45 GMT
Crépuscule civil 06:40 GMT 19:07 GMT
Crépuscule nautique 06:15 GMT 19:32 GMT
Crépuscule astronomique 05:50 GMT 19:57 GMT
Lune 05:46 GMT 17:56 GMT
Durée de lumière visible 12h 26m
Longueur du jour
11h 43m
Tomorrow will be 0m 46s shorter.
Lune descendante, 1% of the Moon is Illuminated
Aujourd'hui
Lune descendante
Oct 23
Nouveau
Oct 30
Premier quartier
Nov 6
Pleine lune
Nov 14
Dernier quartier

Extrêmes aujourd'hui

Country Highs Country Lows

Community

WunderPhotos

Upload Photos

1,764,047 Photos téléchargées !

WunderBlogs® & News

By Dr. Jeff Masters
Director of Meteorology, Weather Underground
By Kari Strenfel
Meteorologist, Weather Underground
By Christopher C. Burt
Weather Historian, Weather Underground
October 22, 2014
October 22, 2014
October 22, 2014

Nearby

Qualité de l'air

Not available.

Épaisseur de neige

Not available.

Activité sismique

Ville Distance Mag. Time & Date
No recent earthquake activity has been reported nearby.
Minimum magnitude displayed is 2.5.

Températures des eaux côtières

Lieu Température
Aucun rapport de station

Stations météo à proximité